sensor_id;sensor_type;location;lat;lon;timestamp;pressure;altitude;pressure_sealevel;temperature;humidity
22333;BME280;11334;36.986;-121.936;2022-10-23T00:01:18;100320.28;;;19.80;39.74
22333;BME280;11334;36.986;-121.936;2022-10-23T00:03:45;100323.44;;;19.71;40.35
22333;BME280;11334;36.986;-121.936;2022-10-23T00:06:12;100317.41;;;19.93;40.71
22333;BME280;11334;36.986;-121.936;2022-10-23T00:08:40;100304.63;;;20.06;40.92
22333;BME280;11334;36.986;-121.936;2022-10-23T00:11:11;100316.41;;;20.05;40.90
22333;BME280;11334;36.986;-121.936;2022-10-23T00:13:37;100323.59;;;19.94;41.31
22333;BME280;11334;36.986;-121.936;2022-10-23T00:16:04;100319.13;;;19.88;41.21
22333;BME280;11334;36.986;-121.936;2022-10-23T00:18:30;100305.03;;;19.74;41.76
22333;BME280;11334;36.986;-121.936;2022-10-23T00:20:57;100303.81;;;19.70;41.89
22333;BME280;11334;36.986;-121.936;2022-10-23T00:23:23;100302.84;;;19.65;42.24
22333;BME280;11334;36.986;-121.936;2022-10-23T00:25:50;100298.66;;;19.51;42.96
22333;BME280;11334;36.986;-121.936;2022-10-23T00:28:16;100302.72;;;19.42;43.16
22333;BME280;11334;36.986;-121.936;2022-10-23T00:30:42;100294.91;;;19.34;43.53
22333;BME280;11334;36.986;-121.936;2022-10-23T00:33:09;100305.31;;;19.49;43.49
22333;BME280;11334;36.986;-121.936;2022-10-23T00:35:40;100305.09;;;19.32;44.33
22333;BME280;11334;36.986;-121.936;2022-10-23T00:38:07;100302.00;;;19.29;44.12
22333;BME280;11334;36.986;-121.936;2022-10-23T00:40:34;100303.72;;;19.06;44.44
22333;BME280;11334;36.986;-121.936;2022-10-23T00:43:01;100309.28;;;19.04;44.75
22333;BME280;11334;36.986;-121.936;2022-10-23T00:45:32;100308.03;;;18.83;45.29
22333;BME280;11334;36.986;-121.936;2022-10-23T00:48:00;100315.09;;;18.77;45.72
22333;BME280;11334;36.986;-121.936;2022-10-23T00:50:30;100312.91;;;18.68;45.71
22333;BME280;11334;36.986;-121.936;2022-10-23T00:52:59;100322.16;;;18.72;46.22
22333;BME280;11334;36.986;-121.936;2022-10-23T00:55:27;100332.69;;;18.73;46.03
22333;BME280;11334;36.986;-121.936;2022-10-23T00:57:55;100339.25;;;18.77;46.21
22333;BME280;11334;36.986;-121.936;2022-10-23T01:00:28;100342.78;;;18.78;46.18
22333;BME280;11334;36.986;-121.936;2022-10-23T01:02:56;100342.50;;;18.86;46.05
22333;BME280;11334;36.986;-121.936;2022-10-23T01:05:37;100342.94;;;18.83;46.28
22333;BME280;11334;36.986;-121.936;2022-10-23T01:08:15;100351.91;;;18.70;46.35
22333;BME280;11334;36.986;-121.936;2022-10-23T01:10:47;100354.66;;;18.64;46.86
22333;BME280;11334;36.986;-121.936;2022-10-23T01:13:33;100355.13;;;18.55;46.69
22333;BME280;11334;36.986;-121.936;2022-10-23T01:16:06;100352.16;;;18.32;47.65
22333;BME280;11334;36.986;-121.936;2022-10-23T01:24:54;100365.66;;;18.19;49.12
22333;BME280;11334;36.986;-121.936;2022-10-23T01:27:26;100359.03;;;18.22;48.85
22333;BME280;11334;36.986;-121.936;2022-10-23T01:30:07;100371.66;;;18.15;49.33
22333;BME280;11334;36.986;-121.936;2022-10-23T01:32:43;100377.66;;;18.10;49.47
22333;BME280;11334;36.986;-121.936;2022-10-23T01:35:23;100383.03;;;18.10;49.65
22333;BME280;11334;36.986;-121.936;2022-10-23T01:38:17;100375.44;;;17.95;50.19
22333;BME280;11334;36.986;-121.936;2022-10-23T01:40:52;100374.44;;;17.83;50.30
22333;BME280;11334;36.986;-121.936;2022-10-23T01:43:31;100386.66;;;17.66;50.63
22333;BME280;11334;36.986;-121.936;2022-10-23T01:46:06;100383.22;;;17.40;51.52
22333;BME280;11334;36.986;-121.936;2022-10-23T01:48:35;100391.88;;;17.42;51.52
22333;BME280;11334;36.986;-121.936;2022-10-23T01:51:06;100386.72;;;17.47;51.49
22333;BME280;11334;36.986;-121.936;2022-10-23T01:53:37;100396.41;;;17.29;51.96
22333;BME280;11334;36.986;-121.936;2022-10-23T01:56:11;100397.03;;;17.31;51.78
22333;BME280;11334;36.986;-121.936;2022-10-23T01:58:42;100396.44;;;17.22;51.88
22333;BME280;11334;36.986;-121.936;2022-10-23T02:01:10;100400.97;;;17.15;51.46
22333;BME280;11334;36.986;-121.936;2022-10-23T02:03:39;100404.22;;;17.11;51.92
22333;BME280;11334;36.986;-121.936;2022-10-23T02:06:08;100407.75;;;17.05;51.83
22333;BME280;11334;36.986;-121.936;2022-10-23T02:08:34;100410.81;;;17.08;51.89
22333;BME280;11334;36.986;-121.936;2022-10-23T02:11:08;100409.16;;;16.95;52.06
22333;BME280;11334;36.986;-121.936;2022-10-23T02:16:38;100421.94;;;16.86;52.20
22333;BME280;11334;36.986;-121.936;2022-10-23T02:19:24;100421.94;;;16.86;52.14
22333;BME280;11334;36.986;-121.936;2022-10-23T02:24:37;100423.56;;;16.87;52.44
22333;BME280;11334;36.986;-121.936;2022-10-23T02:27:11;100426.69;;;16.91;52.43
22333;BME280;11334;36.986;-121.936;2022-10-23T02:29:52;100427.06;;;16.94;52.41
22333;BME280;11334;36.986;-121.936;2022-10-23T02:32:24;100431.00;;;16.92;51.88
22333;BME280;11334;36.986;-121.936;2022-10-23T02:34:51;100431.00;;;16.98;52.09
22333;BME280;11334;36.986;-121.936;2022-10-23T02:37:17;100439.03;;;16.98;52.10
22333;BME280;11334;36.986;-121.936;2022-10-23T02:39:44;100450.97;;;17.02;52.03
22333;BME280;11334;36.986;-121.936;2022-10-23T02:42:17;100453.25;;;16.99;52.02
22333;BME280;11334;36.986;-121.936;2022-10-23T02:44:54;100451.59;;;17.04;51.92
22333;BME280;11334;36.986;-121.936;2022-10-23T02:47:34;100453.03;;;17.00;52.32
22333;BME280;11334;36.986;-121.936;2022-10-23T02:52:40;100452.84;;;17.08;51.86
22333;BME280;11334;36.986;-121.936;2022-10-23T03:00:45;100452.84;;;16.95;52.14
22333;BME280;11334;36.986;-121.936;2022-10-23T03:03:26;100445.81;;;16.88;52.18
22333;BME280;11334;36.986;-121.936;2022-10-23T03:05:53;100451.38;;;16.86;52.44
22333;BME280;11334;36.986;-121.936;2022-10-23T03:08:19;100459.00;;;16.89;52.27
22333;BME280;11334;36.986;-121.936;2022-10-23T03:10:45;100471.97;;;16.86;52.47
22333;BME280;11334;36.986;-121.936;2022-10-23T03:13:12;100474.63;;;16.86;52.41
22333;BME280;11334;36.986;-121.936;2022-10-23T03:15:38;100468.47;;;16.85;52.23
22333;BME280;11334;36.986;-121.936;2022-10-23T03:18:04;100465.97;;;16.84;51.83
22333;BME280;11334;36.986;-121.936;2022-10-23T03:20:30;100462.03;;;16.67;52.06
22333;BME280;11334;36.986;-121.936;2022-10-23T03:22:56;100455.16;;;16.45;52.83
22333;BME280;11334;36.986;-121.936;2022-10-23T03:25:23;100467.94;;;16.44;53.08
22333;BME280;11334;36.986;-121.936;2022-10-23T03:27:49;100460.47;;;16.33;53.36
22333;BME280;11334;36.986;-121.936;2022-10-23T03:30:15;100470.16;;;16.34;53.38
22333;BME280;11334;36.986;-121.936;2022-10-23T03:32:41;100460.66;;;16.25;53.39
22333;BME280;11334;36.986;-121.936;2022-10-23T03:35:08;100474.69;;;16.33;53.50
22333;BME280;11334;36.986;-121.936;2022-10-23T03:37:34;100482.72;;;16.33;53.28
22333;BME280;11334;36.986;-121.936;2022-10-23T03:40:00;100483.53;;;16.34;53.16
22333;BME280;11334;36.986;-121.936;2022-10-23T03:42:27;100466.03;;;16.31;53.19
22333;BME280;11334;36.986;-121.936;2022-10-23T03:44:53;100476.56;;;16.39;53.18
22333;BME280;11334;36.986;-121.936;2022-10-23T03:47:19;100482.09;;;16.38;52.81
22333;BME280;11334;36.986;-121.936;2022-10-23T03:49:45;100483.94;;;16.37;53.09
22333;BME280;11334;36.986;-121.936;2022-10-23T03:52:11;100479.59;;;16.30;53.08
22333;BME280;11334;36.986;-121.936;2022-10-23T03:54:38;100485.41;;;16.33;53.06
22333;BME280;11334;36.986;-121.936;2022-10-23T03:57:04;100493.00;;;16.36;52.76
22333;BME280;11334;36.986;-121.936;2022-10-23T03:59:30;100479.41;;;16.38;52.50
22333;BME280;11334;36.986;-121.936;2022-10-23T04:01:56;100486.63;;;16.37;52.47
22333;BME280;11334;36.986;-121.936;2022-10-23T04:04:23;100486.22;;;16.40;52.25
22333;BME280;11334;36.986;-121.936;2022-10-23T04:06:49;100490.53;;;16.35;52.22
22333;BME280;11334;36.986;-121.936;2022-10-23T04:09:16;100498.53;;;16.35;51.91
22333;BME280;11334;36.986;-121.936;2022-10-23T04:11:42;100494.00;;;16.29;52.53
22333;BME280;11334;36.986;-121.936;2022-10-23T04:14:11;100489.88;;;16.26;52.57
22333;BME280;11334;36.986;-121.936;2022-10-23T04:16:38;100491.34;;;16.29;51.99
22333;BME280;11334;36.986;-121.936;2022-10-23T04:19:04;100490.94;;;16.32;51.76
22333;BME280;11334;36.986;-121.936;2022-10-23T04:21:31;100505.91;;;16.26;51.94
22333;BME280;11334;36.986;-121.936;2022-10-23T04:23:57;100512.91;;;16.21;52.31
22333;BME280;11334;36.986;-121.936;2022-10-23T04:26:23;100518.03;;;16.22;51.84
22333;BME280;11334;36.986;-121.936;2022-10-23T04:28:49;100523.78;;;16.19;51.85
22333;BME280;11334;36.986;-121.936;2022-10-23T04:31:15;100532.44;;;16.21;52.05
22333;BME280;11334;36.986;-121.936;2022-10-23T04:33:42;100536.97;;;16.21;52.43
22333;BME280;11334;36.986;-121.936;2022-10-23T04:36:09;100538.78;;;16.20;52.27
22333;BME280;11334;36.986;-121.936;2022-10-23T04:38:35;100543.72;;;16.17;52.53
22333;BME280;11334;36.986;-121.936;2022-10-23T04:41:01;100537.78;;;16.21;51.80
22333;BME280;11334;36.986;-121.936;2022-10-23T04:43:27;100524.56;;;16.13;51.83
22333;BME280;11334;36.986;-121.936;2022-10-23T04:45:54;100538.59;;;16.22;52.13
22333;BME280;11334;36.986;-121.936;2022-10-23T04:48:20;100543.13;;;16.21;52.35
22333;BME280;11334;36.986;-121.936;2022-10-23T04:50:57;100545.56;;;16.16;52.59
22333;BME280;11334;36.986;-121.936;2022-10-23T04:53:25;100545.97;;;16.13;52.52
22333;BME280;11334;36.986;-121.936;2022-10-23T04:55:53;100557.84;;;16.11;52.55
22333;BME280;11334;36.986;-121.936;2022-10-23T04:58:19;100556.56;;;16.07;52.48
22333;BME280;11334;36.986;-121.936;2022-10-23T05:00:46;100556.16;;;16.04;52.58
22333;BME280;11334;36.986;-121.936;2022-10-23T05:03:13;100556.56;;;16.07;52.50
22333;BME280;11334;36.986;-121.936;2022-10-23T05:05:40;100543.78;;;16.03;52.72
22333;BME280;11334;36.986;-121.936;2022-10-23T05:08:07;100549.94;;;16.03;52.74
22333;BME280;11334;36.986;-121.936;2022-10-23T05:10:34;100555.75;;;16.07;52.67
22333;BME280;11334;36.986;-121.936;2022-10-23T05:13:01;100556.75;;;16.06;53.09
22333;BME280;11334;36.986;-121.936;2022-10-23T05:15:28;100557.69;;;15.92;53.27
22333;BME280;11334;36.986;-121.936;2022-10-23T05:17:57;100563.63;;;15.87;53.42
22333;BME280;11334;36.986;-121.936;2022-10-23T05:20:29;100568.53;;;15.84;53.50
22333;BME280;11334;36.986;-121.936;2022-10-23T05:22:59;100573.44;;;15.80;53.55
22333;BME280;11334;36.986;-121.936;2022-10-23T05:25:29;100567.44;;;15.79;53.67
22333;BME280;11334;36.986;-121.936;2022-10-23T05:27:55;100572.19;;;15.77;53.81
22333;BME280;11334;36.986;-121.936;2022-10-23T05:30:21;100588.38;;;15.75;53.68
22333;BME280;11334;36.986;-121.936;2022-10-23T05:32:48;100573.19;;;15.76;53.44
22333;BME280;11334;36.986;-121.936;2022-10-23T05:35:17;100577.41;;;15.64;53.85
22333;BME280;11334;36.986;-121.936;2022-10-23T05:37:46;100580.06;;;15.64;53.93
22333;BME280;11334;36.986;-121.936;2022-10-23T05:40:13;100588.78;;;15.51;54.42
22333;BME280;11334;36.986;-121.936;2022-10-23T05:42:39;100587.16;;;15.50;54.34
22333;BME280;11334;36.986;-121.936;2022-10-23T05:45:05;100593.84;;;15.40;54.55
22333;BME280;11334;36.986;-121.936;2022-10-23T05:47:32;100596.28;;;15.42;54.83
22333;BME280;11334;36.986;-121.936;2022-10-23T05:49:58;100586.13;;;15.31;54.73
22333;BME280;11334;36.986;-121.936;2022-10-23T05:52:24;100585.69;;;15.27;54.69
22333;BME280;11334;36.986;-121.936;2022-10-23T05:54:51;100603.53;;;15.27;55.10
22333;BME280;11334;36.986;-121.936;2022-10-23T05:57:17;100602.91;;;15.25;55.14
22333;BME280;11334;36.986;-121.936;2022-10-23T05:59:44;100601.47;;;15.22;54.64
22333;BME280;11334;36.986;-121.936;2022-10-23T06:02:10;100615.94;;;15.14;55.17
22333;BME280;11334;36.986;-121.936;2022-10-23T06:04:36;100611.78;;;15.11;55.40
22333;BME280;11334;36.986;-121.936;2022-10-23T06:07:03;100618.69;;;15.06;55.50
22333;BME280;11334;36.986;-121.936;2022-10-23T06:09:29;100614.41;;;14.90;55.63
22333;BME280;11334;36.986;-121.936;2022-10-23T06:11:55;100624.44;;;14.88;55.97
22333;BME280;11334;36.986;-121.936;2022-10-23T06:14:21;100631.59;;;14.88;55.81
22333;BME280;11334;36.986;-121.936;2022-10-23T06:16:48;100642.44;;;14.86;55.56
22333;BME280;11334;36.986;-121.936;2022-10-23T06:19:14;100638.69;;;14.81;56.07
22333;BME280;11334;36.986;-121.936;2022-10-23T06:21:40;100648.00;;;14.71;56.23
22333;BME280;11334;36.986;-121.936;2022-10-23T06:24:07;100639.72;;;14.66;56.16
22333;BME280;11334;36.986;-121.936;2022-10-23T06:26:33;100639.63;;;14.59;56.24
22333;BME280;11334;36.986;-121.936;2022-10-23T06:28:59;100641.66;;;14.57;56.28
22333;BME280;11334;36.986;-121.936;2022-10-23T06:31:26;100644.50;;;14.56;56.69
22333;BME280;11334;36.986;-121.936;2022-10-23T06:33:54;100640.75;;;14.51;56.29
22333;BME280;11334;36.986;-121.936;2022-10-23T06:36:21;100646.25;;;14.49;56.42
22333;BME280;11334;36.986;-121.936;2022-10-23T06:38:47;100650.66;;;14.42;56.37
22333;BME280;11334;36.986;-121.936;2022-10-23T06:41:16;100658.38;;;14.37;56.94
22333;BME280;11334;36.986;-121.936;2022-10-23T06:43:43;100655.44;;;14.32;56.78
22333;BME280;11334;36.986;-121.936;2022-10-23T06:46:09;100654.00;;;14.08;57.37
22333;BME280;11334;36.986;-121.936;2022-10-23T06:48:36;100660.13;;;14.16;57.43
22333;BME280;11334;36.986;-121.936;2022-10-23T06:51:07;100652.81;;;14.10;57.98
22333;BME280;11334;36.986;-121.936;2022-10-23T06:53:34;100659.25;;;14.16;57.86
22333;BME280;11334;36.986;-121.936;2022-10-23T06:56:01;100658.34;;;14.09;57.72
22333;BME280;11334;36.986;-121.936;2022-10-23T06:58:28;100655.94;;;13.99;58.82
22333;BME280;11334;36.986;-121.936;2022-10-23T07:00:55;100665.78;;;13.91;58.72
22333;BME280;11334;36.986;-121.936;2022-10-23T07:03:24;100658.00;;;13.89;59.32
22333;BME280;11334;36.986;-121.936;2022-10-23T07:05:50;100654.28;;;13.76;59.19
22333;BME280;11334;36.986;-121.936;2022-10-23T07:08:16;100655.81;;;13.71;59.18
22333;BME280;11334;36.986;-121.936;2022-10-23T07:10:43;100665.56;;;13.78;59.21
22333;BME280;11334;36.986;-121.936;2022-10-23T07:13:10;100658.97;;;13.74;59.00
22333;BME280;11334;36.986;-121.936;2022-10-23T07:15:37;100660.50;;;13.69;59.49
22333;BME280;11334;36.986;-121.936;2022-10-23T07:18:04;100663.88;;;13.63;59.40
22333;BME280;11334;36.986;-121.936;2022-10-23T07:20:31;100670.56;;;13.59;59.65
22333;BME280;11334;36.986;-121.936;2022-10-23T07:22:57;100673.41;;;13.57;59.49
22333;BME280;11334;36.986;-121.936;2022-10-23T07:25:24;100672.97;;;13.46;59.88
22333;BME280;11334;36.986;-121.936;2022-10-23T07:27:51;100676.03;;;13.35;59.88
22333;BME280;11334;36.986;-121.936;2022-10-23T07:30:19;100676.03;;;13.35;59.81
22333;BME280;11334;36.986;-121.936;2022-10-23T07:32:45;100681.84;;;13.39;60.06
22333;BME280;11334;36.986;-121.936;2022-10-23T07:35:12;100682.84;;;13.38;59.75
22333;BME280;11334;36.986;-121.936;2022-10-23T07:37:38;100689.34;;;13.35;59.70
22333;BME280;11334;36.986;-121.936;2022-10-23T07:40:06;100695.19;;;13.31;60.12
22333;BME280;11334;36.986;-121.936;2022-10-23T07:42:32;100680.00;;;13.17;60.34
22333;BME280;11334;36.986;-121.936;2022-10-23T07:44:59;100684.66;;;13.15;60.70
22333;BME280;11334;36.986;-121.936;2022-10-23T07:47:25;100679.53;;;13.06;60.44
22333;BME280;11334;36.986;-121.936;2022-10-23T07:49:51;100698.69;;;13.01;60.71
22333;BME280;11334;36.986;-121.936;2022-10-23T07:52:17;100713.00;;;13.00;61.12
22333;BME280;11334;36.986;-121.936;2022-10-23T07:54:43;100705.31;;;13.05;61.13
22333;BME280;11334;36.986;-121.936;2022-10-23T07:57:10;100714.97;;;12.98;61.61
22333;BME280;11334;36.986;-121.936;2022-10-23T07:59:37;100722.31;;;12.96;61.24
22333;BME280;11334;36.986;-121.936;2022-10-23T08:02:03;100729.34;;;12.82;62.17
22333;BME280;11334;36.986;-121.936;2022-10-23T08:04:29;100737.97;;;12.84;62.78
22333;BME280;11334;36.986;-121.936;2022-10-23T08:06:56;100731.31;;;12.80;62.91
22333;BME280;11334;36.986;-121.936;2022-10-23T08:09:22;100719.72;;;12.73;63.11
22333;BME280;11334;36.986;-121.936;2022-10-23T08:11:49;100716.22;;;12.64;63.89
22333;BME280;11334;36.986;-121.936;2022-10-23T08:14:15;100718.22;;;12.70;63.29
22333;BME280;11334;36.986;-121.936;2022-10-23T08:16:41;100712.72;;;12.72;63.89
22333;BME280;11334;36.986;-121.936;2022-10-23T08:19:07;100720.34;;;12.75;63.81
22333;BME280;11334;36.986;-121.936;2022-10-23T08:21:33;100729.19;;;12.75;64.08
22333;BME280;11334;36.986;-121.936;2022-10-23T08:24:00;100734.66;;;12.74;64.19
22333;BME280;11334;36.986;-121.936;2022-10-23T08:26:27;100733.66;;;12.67;64.57
22333;BME280;11334;36.986;-121.936;2022-10-23T08:28:58;100743.53;;;12.51;64.68
22333;BME280;11334;36.986;-121.936;2022-10-23T08:31:24;100744.19;;;12.53;65.15
22333;BME280;11334;36.986;-121.936;2022-10-23T08:33:51;100748.81;;;12.59;64.98
22333;BME280;11334;36.986;-121.936;2022-10-23T08:36:20;100740.53;;;12.54;64.51
22333;BME280;11334;36.986;-121.936;2022-10-23T08:38:47;100740.19;;;12.49;64.86
22333;BME280;11334;36.986;-121.936;2022-10-23T08:41:23;100756.63;;;12.44;65.77
22333;BME280;11334;36.986;-121.936;2022-10-23T08:44:17;100754.31;;;12.49;65.28
22333;BME280;11334;36.986;-121.936;2022-10-23T08:46:43;100753.81;;;12.54;65.02
22333;BME280;11334;36.986;-121.936;2022-10-23T08:49:23;100763.94;;;12.42;65.26
22333;BME280;11334;36.986;-121.936;2022-10-23T08:51:54;100763.47;;;12.39;65.37
22333;BME280;11334;36.986;-121.936;2022-10-23T08:54:44;100760.31;;;12.43;65.31
22333;BME280;11334;36.986;-121.936;2022-10-23T08:57:16;100760.47;;;12.42;65.26
22333;BME280;11334;36.986;-121.936;2022-10-23T08:59:47;100762.97;;;12.35;65.61
22333;BME280;11334;36.986;-121.936;2022-10-23T09:02:26;100760.81;;;12.39;65.48
22333;BME280;11334;36.986;-121.936;2022-10-23T09:04:54;100757.00;;;12.33;66.39
22333;BME280;11334;36.986;-121.936;2022-10-23T09:07:43;100754.84;;;12.21;66.31
22333;BME280;11334;36.986;-121.936;2022-10-23T09:12:49;100771.94;;;12.19;67.01
22333;BME280;11334;36.986;-121.936;2022-10-23T09:15:41;100779.72;;;12.12;67.09
22333;BME280;11334;36.986;-121.936;2022-10-23T09:18:13;100781.91;;;12.17;66.44
22333;BME280;11334;36.986;-121.936;2022-10-23T09:20:42;100785.56;;;12.16;66.29
22333;BME280;11334;36.986;-121.936;2022-10-23T09:23:20;100789.53;;;12.12;66.65
22333;BME280;11334;36.986;-121.936;2022-10-23T09:25:49;100784.22;;;12.12;66.63
22333;BME280;11334;36.986;-121.936;2022-10-23T09:28:26;100794.16;;;12.10;66.94
22333;BME280;11334;36.986;-121.936;2022-10-23T09:30:52;100792.00;;;12.05;66.83
22333;BME280;11334;36.986;-121.936;2022-10-23T09:33:24;100793.34;;;12.01;67.47
22333;BME280;11334;36.986;-121.936;2022-10-23T09:38:32;100792.53;;;12.01;66.93
22333;BME280;11334;36.986;-121.936;2022-10-23T09:41:03;100786.34;;;11.93;67.61
22333;BME280;11334;36.986;-121.936;2022-10-23T09:43:31;100795.47;;;11.98;66.77
22333;BME280;11334;36.986;-121.936;2022-10-23T09:46:02;100805.81;;;12.01;67.21
22333;BME280;11334;36.986;-121.936;2022-10-23T09:48:30;100797.16;;;11.99;67.06
22333;BME280;11334;36.986;-121.936;2022-10-23T09:50:59;100798.13;;;11.90;67.11
22333;BME280;11334;36.986;-121.936;2022-10-23T09:53:39;100794.81;;;11.88;67.26
22333;BME280;11334;36.986;-121.936;2022-10-23T09:56:30;100805.13;;;11.91;67.40
22333;BME280;11334;36.986;-121.936;2022-10-23T10:01:48;100813.38;;;11.88;67.07
22333;BME280;11334;36.986;-121.936;2022-10-23T10:04:14;100814.06;;;11.82;67.38
22333;BME280;11334;36.986;-121.936;2022-10-23T10:06:41;100818.69;;;11.80;67.72
22333;BME280;11334;36.986;-121.936;2022-10-23T10:09:15;100817.84;;;11.72;67.38
22333;BME280;11334;36.986;-121.936;2022-10-23T10:11:45;100824.94;;;11.64;68.30
22333;BME280;11334;36.986;-121.936;2022-10-23T10:17:07;100825.97;;;11.70;68.58
22333;BME280;11334;36.986;-121.936;2022-10-23T10:25:36;100820.94;;;11.52;68.89
22333;BME280;11334;36.986;-121.936;2022-10-23T10:28:16;100813.97;;;11.59;68.35
22333;BME280;11334;36.986;-121.936;2022-10-23T10:30:50;100813.34;;;11.57;68.26
22333;BME280;11334;36.986;-121.936;2022-10-23T10:33:31;100817.97;;;11.55;68.55
22333;BME280;11334;36.986;-121.936;2022-10-23T10:38:59;100807.97;;;11.41;68.95
22333;BME280;11334;36.986;-121.936;2022-10-23T10:41:51;100818.56;;;11.41;69.67
22333;BME280;11334;36.986;-121.936;2022-10-23T10:47:36;100826.41;;;11.50;68.94
22333;BME280;11334;36.986;-121.936;2022-10-23T10:53:06;100833.34;;;11.43;68.94
22333;BME280;11334;36.986;-121.936;2022-10-23T10:55:38;100833.94;;;11.37;68.51
22333;BME280;11334;36.986;-121.936;2022-10-23T11:00:56;100833.94;;;11.37;68.58
22333;BME280;11334;36.986;-121.936;2022-10-23T11:05:57;100833.72;;;11.23;69.32
22333;BME280;11334;36.986;-121.936;2022-10-23T11:08:35;100833.34;;;11.18;69.15
22333;BME280;11334;36.986;-121.936;2022-10-23T11:13:58;100843.13;;;11.18;69.53
22333;BME280;11334;36.986;-121.936;2022-10-23T11:16:49;100843.50;;;11.23;69.14
22333;BME280;11334;36.986;-121.936;2022-10-23T11:19:36;100837.34;;;11.14;69.51
22333;BME280;11334;36.986;-121.936;2022-10-23T11:25:01;100842.94;;;11.11;70.15
22333;BME280;11334;36.986;-121.936;2022-10-23T11:27:40;100851.19;;;11.08;70.22
22333;BME280;11334;36.986;-121.936;2022-10-23T11:33:05;100865.25;;;11.01;70.10
22333;BME280;11334;36.986;-121.936;2022-10-23T11:35:56;100853.16;;;11.06;70.29
22333;BME280;11334;36.986;-121.936;2022-10-23T11:38:38;100854.31;;;11.04;69.50
22333;BME280;11334;36.986;-121.936;2022-10-23T11:43:49;100864.84;;;10.88;70.52
22333;BME280;11334;36.986;-121.936;2022-10-23T11:48:48;100867.06;;;11.01;69.88
22333;BME280;11334;36.986;-121.936;2022-10-23T11:51:35;100857.72;;;10.89;70.27
22333;BME280;11334;36.986;-121.936;2022-10-23T11:56:52;100881.94;;;10.94;70.89
22333;BME280;11334;36.986;-121.936;2022-10-23T11:59:26;100891.06;;;10.99;70.20
22333;BME280;11334;36.986;-121.936;2022-10-23T12:01:55;100889.28;;;11.00;70.08
22333;BME280;11334;36.986;-121.936;2022-10-23T12:04:32;100881.09;;;10.93;69.85
22333;BME280;11334;36.986;-121.936;2022-10-23T12:07:15;100881.94;;;10.94;70.17
22333;BME280;11334;36.986;-121.936;2022-10-23T12:09:53;100886.53;;;10.92;70.86
22333;BME280;11334;36.986;-121.936;2022-10-23T12:15:17;100890.19;;;10.91;70.44
22333;BME280;11334;36.986;-121.936;2022-10-23T12:17:45;100893.47;;;10.85;70.97
22333;BME280;11334;36.986;-121.936;2022-10-23T12:22:44;100895.63;;;10.89;70.21
22333;BME280;11334;36.986;-121.936;2022-10-23T12:30:22;100899.22;;;10.80;70.02
22333;BME280;11334;36.986;-121.936;2022-10-23T12:33:10;100911.28;;;10.75;70.63
22333;BME280;11334;36.986;-121.936;2022-10-23T12:35:52;100905.91;;;10.67;71.17
22333;BME280;11334;36.986;-121.936;2022-10-23T12:38:22;100909.53;;;10.66;71.37
22333;BME280;11334;36.986;-121.936;2022-10-23T12:41:18;100917.88;;;10.71;70.84
22333;BME280;11334;36.986;-121.936;2022-10-23T12:43:57;100930.75;;;10.66;70.65
22333;BME280;11334;36.986;-121.936;2022-10-23T12:49:00;100928.47;;;10.71;71.00
22333;BME280;11334;36.986;-121.936;2022-10-23T12:51:32;100930.59;;;10.68;71.65
22333;BME280;11334;36.986;-121.936;2022-10-23T12:53:59;100931.81;;;10.73;71.04
22333;BME280;11334;36.986;-121.936;2022-10-23T12:56:26;100936.88;;;10.67;70.74
22333;BME280;11334;36.986;-121.936;2022-10-23T12:58:56;100944.13;;;10.65;70.74
22333;BME280;11334;36.986;-121.936;2022-10-23T13:01:30;100930.50;;;10.60;71.09
22333;BME280;11334;36.986;-121.936;2022-10-23T13:04:12;100936.13;;;10.57;71.00
22333;BME280;11334;36.986;-121.936;2022-10-23T13:06:42;100941.09;;;10.60;71.27
22333;BME280;11334;36.986;-121.936;2022-10-23T13:11:57;100941.72;;;10.54;71.00
22333;BME280;11334;36.986;-121.936;2022-10-23T13:17:37;100942.47;;;10.46;71.92
22333;BME280;11334;36.986;-121.936;2022-10-23T13:25:56;100949.16;;;10.50;71.51
22333;BME280;11334;36.986;-121.936;2022-10-23T13:28:32;100944.63;;;10.43;71.60
22333;BME280;11334;36.986;-121.936;2022-10-23T13:31:43;100951.25;;;10.47;71.44
22333;BME280;11334;36.986;-121.936;2022-10-23T13:36:28;100963.28;;;10.41;71.11
22333;BME280;11334;36.986;-121.936;2022-10-23T13:39:11;100959.94;;;10.40;71.57
22333;BME280;11334;36.986;-121.936;2022-10-23T13:41:43;100969.34;;;10.34;71.40
22333;BME280;11334;36.986;-121.936;2022-10-23T13:44:16;100971.69;;;10.37;71.96
22333;BME280;11334;36.986;-121.936;2022-10-23T13:46:43;100971.91;;;10.26;71.71
22333;BME280;11334;36.986;-121.936;2022-10-23T13:49:10;100966.06;;;10.23;72.04
22333;BME280;11334;36.986;-121.936;2022-10-23T13:51:43;100967.97;;;10.30;71.95
22333;BME280;11334;36.986;-121.936;2022-10-23T13:54:21;100973.56;;;10.27;71.42
22333;BME280;11334;36.986;-121.936;2022-10-23T13:56:47;100969.09;;;10.28;71.65
22333;BME280;11334;36.986;-121.936;2022-10-23T13:59:15;100970.38;;;10.24;71.87
22333;BME280;11334;36.986;-121.936;2022-10-23T14:01:43;100979.97;;;10.25;71.77
22333;BME280;11334;36.986;-121.936;2022-10-23T14:04:10;100982.50;;;10.26;72.18
22333;BME280;11334;36.986;-121.936;2022-10-23T14:06:37;100977.78;;;10.20;71.93
22333;BME280;11334;36.986;-121.936;2022-10-23T14:09:05;100979.84;;;10.26;72.06
22333;BME280;11334;36.986;-121.936;2022-10-23T14:11:32;100984.31;;;10.26;71.77